sensor_id;sensor_type;location;lat;lon;timestamp;P1;durP1;ratioP1;P2;durP2;ratioP2
80944;SDS011;70400;50.934;11.590;2023-11-22T00:00:36;18.63;;;6.95;;
80944;SDS011;70400;50.934;11.590;2023-11-22T00:01:27;18.25;;;7.53;;
80944;SDS011;70400;50.934;11.590;2023-11-22T00:02:18;15.43;;;7.43;;
80944;SDS011;70400;50.934;11.590;2023-11-22T00:03:09;20.80;;;8.57;;
80944;SDS011;70400;50.934;11.590;2023-11-22T00:04:02;15.40;;;6.68;;
80944;SDS011;70400;50.934;11.590;2023-11-22T00:04:54;21.38;;;8.07;;
80944;SDS011;70400;50.934;11.590;2023-11-22T00:05:45;17.27;;;7.78;;
80944;SDS011;70400;50.934;11.590;2023-11-22T00:06:37;18.92;;;8.65;;
80944;SDS011;70400;50.934;11.590;2023-11-22T00:07:28;20.95;;;8.15;;
80944;SDS011;70400;50.934;11.590;2023-11-22T00:08:19;18.35;;;8.75;;
80944;SDS011;70400;50.934;11.590;2023-11-22T00:09:11;22.63;;;8.88;;
80944;SDS011;70400;50.934;11.590;2023-11-22T00:10:01;18.30;;;7.88;;
80944;SDS011;70400;50.934;11.590;2023-11-22T00:10:55;15.57;;;8.25;;
80944;SDS011;70400;50.934;11.590;2023-11-22T00:11:46;20.83;;;9.10;;
80944;SDS011;70400;50.934;11.590;2023-11-22T00:12:37;22.20;;;9.63;;
80944;SDS011;70400;50.934;11.590;2023-11-22T00:13:29;24.98;;;10.60;;
80944;SDS011;70400;50.934;11.590;2023-11-22T00:14:20;23.23;;;9.90;;
80944;SDS011;70400;50.934;11.590;2023-11-22T00:15:12;21.27;;;9.43;;
80944;SDS011;70400;50.934;11.590;2023-11-22T00:16:08;20.27;;;7.65;;
80944;SDS011;70400;50.934;11.590;2023-11-22T00:16:59;17.60;;;7.63;;
80944;SDS011;70400;50.934;11.590;2023-11-22T00:17:52;17.65;;;7.60;;
80944;SDS011;70400;50.934;11.590;2023-11-22T00:18:44;18.38;;;7.97;;
80944;SDS011;70400;50.934;11.590;2023-11-22T00:19:35;21.20;;;9.50;;
80944;SDS011;70400;50.934;11.590;2023-11-22T00:20:26;20.13;;;8.88;;
80944;SDS011;70400;50.934;11.590;2023-11-22T00:21:17;24.77;;;9.43;;
80944;SDS011;70400;50.934;11.590;2023-11-22T00:22:13;19.40;;;8.05;;
80944;SDS011;70400;50.934;11.590;2023-11-22T00:23:05;23.88;;;10.00;;
80944;SDS011;70400;50.934;11.590;2023-11-22T00:23:56;22.42;;;8.70;;
80944;SDS011;70400;50.934;11.590;2023-11-22T00:24:47;21.58;;;9.52;;
80944;SDS011;70400;50.934;11.590;2023-11-22T00:25:40;23.98;;;9.45;;
80944;SDS011;70400;50.934;11.590;2023-11-22T00:26:31;22.13;;;9.80;;
80944;SDS011;70400;50.934;11.590;2023-11-22T00:27:22;19.52;;;8.98;;
80944;SDS011;70400;50.934;11.590;2023-11-22T00:28:14;21.52;;;9.52;;
80944;SDS011;70400;50.934;11.590;2023-11-22T00:29:04;17.40;;;8.20;;
80944;SDS011;70400;50.934;11.590;2023-11-22T00:29:56;21.83;;;8.93;;
80944;SDS011;70400;50.934;11.590;2023-11-22T00:30:47;22.23;;;10.52;;
80944;SDS011;70400;50.934;11.590;2023-11-22T00:33:21;17.48;;;7.65;;
80944;SDS011;70400;50.934;11.590;2023-11-22T00:34:13;16.73;;;8.60;;
80944;SDS011;70400;50.934;11.590;2023-11-22T00:35:08;21.20;;;9.52;;
80944;SDS011;70400;50.934;11.590;2023-11-22T00:35:59;21.33;;;9.02;;
80944;SDS011;70400;50.934;11.590;2023-11-22T00:36:50;18.95;;;8.18;;
80944;SDS011;70400;50.934;11.590;2023-11-22T00:37:41;19.08;;;9.20;;
80944;SDS011;70400;50.934;11.590;2023-11-22T00:38:32;18.17;;;7.88;;
80944;SDS011;70400;50.934;11.590;2023-11-22T00:39:26;17.77;;;7.25;;
80944;SDS011;70400;50.934;11.590;2023-11-22T00:40:17;18.95;;;7.68;;
80944;SDS011;70400;50.934;11.590;2023-11-22T00:41:08;15.95;;;8.15;;
80944;SDS011;70400;50.934;11.590;2023-11-22T00:42:00;18.05;;;8.05;;
80944;SDS011;70400;50.934;11.590;2023-11-22T00:42:51;15.18;;;6.88;;
80944;SDS011;70400;50.934;11.590;2023-11-22T00:43:44;14.45;;;5.80;;
80944;SDS011;70400;50.934;11.590;2023-11-22T00:44:35;22.80;;;7.88;;
80944;SDS011;70400;50.934;11.590;2023-11-22T00:46:17;19.30;;;8.02;;
80944;SDS011;70400;50.934;11.590;2023-11-22T00:47:08;13.85;;;7.00;;
80944;SDS011;70400;50.934;11.590;2023-11-22T00:47:59;19.15;;;7.55;;
80944;SDS011;70400;50.934;11.590;2023-11-22T00:48:50;15.63;;;6.78;;
80944;SDS011;70400;50.934;11.590;2023-11-22T00:49:41;18.58;;;8.07;;
80944;SDS011;70400;50.934;11.590;2023-11-22T00:50:32;16.10;;;7.70;;
80944;SDS011;70400;50.934;11.590;2023-11-22T00:51:24;17.13;;;8.15;;
80944;SDS011;70400;50.934;11.590;2023-11-22T00:52:15;14.20;;;7.32;;
80944;SDS011;70400;50.934;11.590;2023-11-22T00:53:06;16.30;;;7.45;;
80944;SDS011;70400;50.934;11.590;2023-11-22T00:53:57;15.73;;;7.68;;
80944;SDS011;70400;50.934;11.590;2023-11-22T00:54:49;17.40;;;8.43;;
80944;SDS011;70400;50.934;11.590;2023-11-22T00:55:40;18.58;;;7.93;;
80944;SDS011;70400;50.934;11.590;2023-11-22T00:56:32;17.10;;;7.80;;
80944;SDS011;70400;50.934;11.590;2023-11-22T00:57:26;17.80;;;8.23;;
80944;SDS011;70400;50.934;11.590;2023-11-22T00:58:17;16.58;;;7.32;;
80944;SDS011;70400;50.934;11.590;2023-11-22T00:59:08;15.98;;;8.02;;
80944;SDS011;70400;50.934;11.590;2023-11-22T00:59:59;16.63;;;8.27;;
80944;SDS011;70400;50.934;11.590;2023-11-22T01:00:50;17.45;;;8.27;;
80944;SDS011;70400;50.934;11.590;2023-11-22T01:01:41;19.25;;;8.82;;
80944;SDS011;70400;50.934;11.590;2023-11-22T01:02:31;20.50;;;8.43;;
80944;SDS011;70400;50.934;11.590;2023-11-22T01:03:23;15.38;;;8.98;;
80944;SDS011;70400;50.934;11.590;2023-11-22T01:04:14;18.35;;;8.80;;
80944;SDS011;70400;50.934;11.590;2023-11-22T01:05:06;19.38;;;8.27;;
80944;SDS011;70400;50.934;11.590;2023-11-22T01:06:01;19.02;;;8.27;;
80944;SDS011;70400;50.934;11.590;2023-11-22T01:06:53;19.25;;;8.65;;
80944;SDS011;70400;50.934;11.590;2023-11-22T01:07:44;18.33;;;8.27;;
80944;SDS011;70400;50.934;11.590;2023-11-22T01:08:36;18.15;;;7.85;;
80944;SDS011;70400;50.934;11.590;2023-11-22T01:09:27;15.63;;;7.80;;
80944;SDS011;70400;50.934;11.590;2023-11-22T01:10:19;16.40;;;7.50;;
80944;SDS011;70400;50.934;11.590;2023-11-22T01:11:10;19.17;;;9.50;;
80944;SDS011;70400;50.934;11.590;2023-11-22T01:12:01;19.55;;;7.65;;
80944;SDS011;70400;50.934;11.590;2023-11-22T01:12:52;16.52;;;7.88;;
80944;SDS011;70400;50.934;11.590;2023-11-22T01:13:43;17.90;;;8.88;;
80944;SDS011;70400;50.934;11.590;2023-11-22T01:14:34;23.60;;;8.95;;
80944;SDS011;70400;50.934;11.590;2023-11-22T01:15:25;16.67;;;8.85;;
80944;SDS011;70400;50.934;11.590;2023-11-22T01:16:16;13.88;;;7.57;;
80944;SDS011;70400;50.934;11.590;2023-11-22T01:17:07;16.88;;;7.78;;
80944;SDS011;70400;50.934;11.590;2023-11-22T01:17:59;16.27;;;7.60;;
80944;SDS011;70400;50.934;11.590;2023-11-22T01:18:51;17.13;;;8.40;;
80944;SDS011;70400;50.934;11.590;2023-11-22T01:19:43;15.93;;;8.25;;
80944;SDS011;70400;50.934;11.590;2023-11-22T01:20:34;17.27;;;7.97;;
80944;SDS011;70400;50.934;11.590;2023-11-22T01:21:26;16.23;;;8.25;;
80944;SDS011;70400;50.934;11.590;2023-11-22T01:22:19;17.17;;;7.47;;
80944;SDS011;70400;50.934;11.590;2023-11-22T01:23:10;17.30;;;7.95;;
80944;SDS011;70400;50.934;11.590;2023-11-22T01:24:01;16.92;;;7.50;;
80944;SDS011;70400;50.934;11.590;2023-11-22T01:24:52;17.15;;;8.07;;
80944;SDS011;70400;50.934;11.590;2023-11-22T01:25:44;22.20;;;9.35;;
80944;SDS011;70400;50.934;11.590;2023-11-22T01:26:35;18.80;;;8.57;;
80944;SDS011;70400;50.934;11.590;2023-11-22T01:27:29;16.95;;;7.60;;
80944;SDS011;70400;50.934;11.590;2023-11-22T01:28:19;17.88;;;7.97;;
80944;SDS011;70400;50.934;11.590;2023-11-22T01:29:10;17.95;;;7.82;;
80944;SDS011;70400;50.934;11.590;2023-11-22T01:30:02;16.33;;;8.02;;
80944;SDS011;70400;50.934;11.590;2023-11-22T01:31:45;16.98;;;7.88;;
80944;SDS011;70400;50.934;11.590;2023-11-22T01:32:36;17.23;;;7.53;;
80944;SDS011;70400;50.934;11.590;2023-11-22T01:33:27;17.20;;;7.65;;
80944;SDS011;70400;50.934;11.590;2023-11-22T01:34:18;12.55;;;6.60;;
80944;SDS011;70400;50.934;11.590;2023-11-22T01:35:08;13.98;;;7.00;;
80944;SDS011;70400;50.934;11.590;2023-11-22T01:36:00;15.90;;;7.95;;
80944;SDS011;70400;50.934;11.590;2023-11-22T01:36:50;20.80;;;8.10;;
80944;SDS011;70400;50.934;11.590;2023-11-22T01:37:42;16.80;;;8.15;;
80944;SDS011;70400;50.934;11.590;2023-11-22T01:38:33;14.52;;;7.25;;
80944;SDS011;70400;50.934;11.590;2023-11-22T01:39:23;14.95;;;7.13;;
80944;SDS011;70400;50.934;11.590;2023-11-22T01:40:14;14.52;;;7.63;;
80944;SDS011;70400;50.934;11.590;2023-11-22T01:41:05;16.85;;;8.07;;
80944;SDS011;70400;50.934;11.590;2023-11-22T01:41:56;16.83;;;8.45;;
80944;SDS011;70400;50.934;11.590;2023-11-22T01:42:47;16.35;;;8.13;;
80944;SDS011;70400;50.934;11.590;2023-11-22T01:43:38;18.10;;;7.20;;
80944;SDS011;70400;50.934;11.590;2023-11-22T01:44:32;16.25;;;7.78;;
80944;SDS011;70400;50.934;11.590;2023-11-22T01:45:23;16.58;;;7.63;;
80944;SDS011;70400;50.934;11.590;2023-11-22T01:46:21;14.88;;;7.90;;
80944;SDS011;70400;50.934;11.590;2023-11-22T01:47:16;16.00;;;6.68;;
80944;SDS011;70400;50.934;11.590;2023-11-22T01:48:09;17.55;;;8.10;;
80944;SDS011;70400;50.934;11.590;2023-11-22T01:49:01;18.73;;;7.95;;
80944;SDS011;70400;50.934;11.590;2023-11-22T01:49:52;18.88;;;9.35;;
80944;SDS011;70400;50.934;11.590;2023-11-22T01:50:44;16.88;;;9.00;;
80944;SDS011;70400;50.934;11.590;2023-11-22T01:51:35;13.77;;;7.82;;
80944;SDS011;70400;50.934;11.590;2023-11-22T01:52:27;16.70;;;7.93;;
80944;SDS011;70400;50.934;11.590;2023-11-22T01:54:12;9.82;;;4.95;;
80944;SDS011;70400;50.934;11.590;2023-11-22T01:55:03;15.43;;;7.78;;
80944;SDS011;70400;50.934;11.590;2023-11-22T01:55:55;14.27;;;7.70;;
80944;SDS011;70400;50.934;11.590;2023-11-22T01:56:47;15.07;;;6.88;;
80944;SDS011;70400;50.934;11.590;2023-11-22T01:57:39;15.35;;;6.85;;
80944;SDS011;70400;50.934;11.590;2023-11-22T01:58:30;15.05;;;7.70;;
80944;SDS011;70400;50.934;11.590;2023-11-22T01:59:22;14.70;;;7.20;;
80944;SDS011;70400;50.934;11.590;2023-11-22T02:00:13;17.80;;;7.80;;
80944;SDS011;70400;50.934;11.590;2023-11-22T02:01:06;18.02;;;7.60;;
80944;SDS011;70400;50.934;11.590;2023-11-22T02:01:57;13.73;;;6.93;;
80944;SDS011;70400;50.934;11.590;2023-11-22T02:02:48;15.70;;;7.78;;
80944;SDS011;70400;50.934;11.590;2023-11-22T02:03:39;14.88;;;8.35;;
80944;SDS011;70400;50.934;11.590;2023-11-22T02:04:31;13.20;;;7.47;;
80944;SDS011;70400;50.934;11.590;2023-11-22T02:05:22;15.43;;;6.88;;
80944;SDS011;70400;50.934;11.590;2023-11-22T02:06:15;16.25;;;7.50;;
80944;SDS011;70400;50.934;11.590;2023-11-22T02:07:09;13.57;;;6.57;;
80944;SDS011;70400;50.934;11.590;2023-11-22T02:08:00;17.40;;;7.88;;
80944;SDS011;70400;50.934;11.590;2023-11-22T02:08:52;16.85;;;7.90;;
80944;SDS011;70400;50.934;11.590;2023-11-22T02:09:43;16.02;;;7.75;;
80944;SDS011;70400;50.934;11.590;2023-11-22T02:10:36;16.98;;;8.52;;
80944;SDS011;70400;50.934;11.590;2023-11-22T02:11:28;15.75;;;7.18;;
80944;SDS011;70400;50.934;11.590;2023-11-22T02:12:19;13.57;;;6.97;;
80944;SDS011;70400;50.934;11.590;2023-11-22T02:14:02;15.55;;;7.88;;
80944;SDS011;70400;50.934;11.590;2023-11-22T02:14:53;15.25;;;7.88;;
80944;SDS011;70400;50.934;11.590;2023-11-22T02:15:44;12.27;;;6.13;;
80944;SDS011;70400;50.934;11.590;2023-11-22T02:16:37;15.43;;;7.93;;
80944;SDS011;70400;50.934;11.590;2023-11-22T02:17:30;14.88;;;7.22;;
80944;SDS011;70400;50.934;11.590;2023-11-22T02:18:22;11.75;;;6.25;;
80944;SDS011;70400;50.934;11.590;2023-11-22T02:19:15;13.38;;;6.40;;
80944;SDS011;70400;50.934;11.590;2023-11-22T02:20:07;13.60;;;6.75;;
80944;SDS011;70400;50.934;11.590;2023-11-22T02:21:01;14.30;;;6.80;;
80944;SDS011;70400;50.934;11.590;2023-11-22T02:21:52;16.50;;;6.93;;
80944;SDS011;70400;50.934;11.590;2023-11-22T02:22:43;14.65;;;6.57;;
80944;SDS011;70400;50.934;11.590;2023-11-22T02:23:35;12.70;;;6.47;;
80944;SDS011;70400;50.934;11.590;2023-11-22T02:24:26;16.70;;;7.05;;
80944;SDS011;70400;50.934;11.590;2023-11-22T02:25:17;12.50;;;5.80;;
80944;SDS011;70400;50.934;11.590;2023-11-22T02:26:08;11.98;;;6.43;;
80944;SDS011;70400;50.934;11.590;2023-11-22T02:27:00;12.27;;;6.40;;
80944;SDS011;70400;50.934;11.590;2023-11-22T02:27:50;14.35;;;7.07;;
80944;SDS011;70400;50.934;11.590;2023-11-22T02:28:42;13.35;;;6.38;;
80944;SDS011;70400;50.934;11.590;2023-11-22T02:29:33;12.18;;;7.05;;
80944;SDS011;70400;50.934;11.590;2023-11-22T02:30:24;13.63;;;6.97;;
80944;SDS011;70400;50.934;11.590;2023-11-22T02:31:16;14.77;;;6.65;;
80944;SDS011;70400;50.934;11.590;2023-11-22T02:32:08;8.30;;;4.72;;
80944;SDS011;70400;50.934;11.590;2023-11-22T02:32:58;15.07;;;6.25;;
80944;SDS011;70400;50.934;11.590;2023-11-22T02:33:49;10.50;;;6.20;;
80944;SDS011;70400;50.934;11.590;2023-11-22T02:34:42;17.38;;;6.97;;
80944;SDS011;70400;50.934;11.590;2023-11-22T02:35:33;14.40;;;6.78;;
80944;SDS011;70400;50.934;11.590;2023-11-22T02:36:24;14.15;;;7.28;;
80944;SDS011;70400;50.934;11.590;2023-11-22T02:37:15;15.68;;;7.05;;
80944;SDS011;70400;50.934;11.590;2023-11-22T02:38:07;13.73;;;6.85;;
80944;SDS011;70400;50.934;11.590;2023-11-22T02:38:58;12.82;;;6.78;;
80944;SDS011;70400;50.934;11.590;2023-11-22T02:41:01;14.77;;;7.38;;
80944;SDS011;70400;50.934;11.590;2023-11-22T02:41:53;12.43;;;6.80;;
80944;SDS011;70400;50.934;11.590;2023-11-22T02:42:44;12.90;;;6.40;;
80944;SDS011;70400;50.934;11.590;2023-11-22T02:43:35;12.57;;;5.90;;
80944;SDS011;70400;50.934;11.590;2023-11-22T02:44:26;13.25;;;6.25;;
80944;SDS011;70400;50.934;11.590;2023-11-22T02:45:18;10.00;;;5.63;;
80944;SDS011;70400;50.934;11.590;2023-11-22T02:46:10;16.80;;;6.88;;
80944;SDS011;70400;50.934;11.590;2023-11-22T02:47:01;13.40;;;6.30;;
80944;SDS011;70400;50.934;11.590;2023-11-22T02:47:52;13.13;;;6.03;;
80944;SDS011;70400;50.934;11.590;2023-11-22T02:48:43;13.38;;;6.07;;
80944;SDS011;70400;50.934;11.590;2023-11-22T02:49:35;13.82;;;6.40;;
80944;SDS011;70400;50.934;11.590;2023-11-22T02:50:26;14.00;;;6.35;;
80944;SDS011;70400;50.934;11.590;2023-11-22T02:51:17;12.18;;;6.35;;
80944;SDS011;70400;50.934;11.590;2023-11-22T02:52:08;10.25;;;5.68;;
80944;SDS011;70400;50.934;11.590;2023-11-22T02:53:03;11.88;;;5.90;;
80944;SDS011;70400;50.934;11.590;2023-11-22T02:53:54;14.80;;;6.63;;
80944;SDS011;70400;50.934;11.590;2023-11-22T02:54:45;16.55;;;6.88;;
80944;SDS011;70400;50.934;11.590;2023-11-22T02:55:36;12.02;;;6.00;;
80944;SDS011;70400;50.934;11.590;2023-11-22T02:56:28;12.30;;;6.10;;
80944;SDS011;70400;50.934;11.590;2023-11-22T02:57:18;13.13;;;6.13;;
80944;SDS011;70400;50.934;11.590;2023-11-22T02:58:09;13.20;;;6.22;;
80944;SDS011;70400;50.934;11.590;2023-11-22T02:59:03;10.77;;;5.95;;
80944;SDS011;70400;50.934;11.590;2023-11-22T02:59:53;10.90;;;5.90;;
80944;SDS011;70400;50.934;11.590;2023-11-22T03:00:44;11.68;;;6.07;;
80944;SDS011;70400;50.934;11.590;2023-11-22T03:01:35;12.60;;;5.78;;
80944;SDS011;70400;50.934;11.590;2023-11-22T03:02:26;10.00;;;5.57;;
80944;SDS011;70400;50.934;11.590;2023-11-22T03:03:17;11.30;;;5.57;;
80944;SDS011;70400;50.934;11.590;2023-11-22T03:04:08;15.38;;;6.57;;
80944;SDS011;70400;50.934;11.590;2023-11-22T03:05:00;11.90;;;5.78;;
80944;SDS011;70400;50.934;11.590;2023-11-22T03:05:51;14.15;;;6.55;;
80944;SDS011;70400;50.934;11.590;2023-11-22T03:06:42;16.88;;;6.40;;
80944;SDS011;70400;50.934;11.590;2023-11-22T03:07:33;14.70;;;6.53;;
80944;SDS011;70400;50.934;11.590;2023-11-22T03:08:24;13.00;;;5.85;;
80944;SDS011;70400;50.934;11.590;2023-11-22T03:09:15;15.65;;;6.30;;
80944;SDS011;70400;50.934;11.590;2023-11-22T03:10:06;13.90;;;6.28;;
80944;SDS011;70400;50.934;11.590;2023-11-22T03:11:50;13.40;;;5.78;;
80944;SDS011;70400;50.934;11.590;2023-11-22T03:12:42;11.90;;;5.97;;
80944;SDS011;70400;50.934;11.590;2023-11-22T03:13:33;13.95;;;6.47;;
80944;SDS011;70400;50.934;11.590;2023-11-22T03:14:24;16.90;;;6.70;;
80944;SDS011;70400;50.934;11.590;2023-11-22T03:15:14;14.15;;;6.85;;
80944;SDS011;70400;50.934;11.590;2023-11-22T03:16:05;11.88;;;6.30;;
80944;SDS011;70400;50.934;11.590;2023-11-22T03:16:56;13.55;;;6.75;;
80944;SDS011;70400;50.934;11.590;2023-11-22T03:17:48;13.88;;;6.35;;
80944;SDS011;70400;50.934;11.590;2023-11-22T03:18:39;13.65;;;5.72;;
80944;SDS011;70400;50.934;11.590;2023-11-22T03:19:30;14.52;;;6.20;;
80944;SDS011;70400;50.934;11.590;2023-11-22T03:20:21;12.07;;;6.43;;
80944;SDS011;70400;50.934;11.590;2023-11-22T03:21:12;12.23;;;6.25;;
80944;SDS011;70400;50.934;11.590;2023-11-22T03:22:03;12.45;;;5.85;;
80944;SDS011;70400;50.934;11.590;2023-11-22T03:22:54;12.40;;;6.22;;
80944;SDS011;70400;50.934;11.590;2023-11-22T03:23:45;9.63;;;4.78;;
80944;SDS011;70400;50.934;11.590;2023-11-22T03:24:37;10.30;;;5.45;;
80944;SDS011;70400;50.934;11.590;2023-11-22T03:25:29;16.65;;;6.15;;
80944;SDS011;70400;50.934;11.590;2023-11-22T03:26:20;12.98;;;6.20;;
80944;SDS011;70400;50.934;11.590;2023-11-22T03:27:11;12.82;;;4.90;;
80944;SDS011;70400;50.934;11.590;2023-11-22T03:28:02;13.65;;;6.30;;
80944;SDS011;70400;50.934;11.590;2023-11-22T03:28:53;11.75;;;4.97;;
80944;SDS011;70400;50.934;11.590;2023-11-22T03:29:44;10.18;;;5.43;;
80944;SDS011;70400;50.934;11.590;2023-11-22T03:30:35;10.60;;;4.93;;
80944;SDS011;70400;50.934;11.590;2023-11-22T03:31:26;11.13;;;5.95;;
80944;SDS011;70400;50.934;11.590;2023-11-22T03:32:18;12.88;;;6.07;;
80944;SDS011;70400;50.934;11.590;2023-11-22T03:33:09;11.57;;;5.43;;
80944;SDS011;70400;50.934;11.590;2023-11-22T03:34:00;11.00;;;5.85;;
80944;SDS011;70400;50.934;11.590;2023-11-22T03:34:51;12.63;;;5.57;;
80944;SDS011;70400;50.934;11.590;2023-11-22T03:35:43;13.40;;;6.50;;
80944;SDS011;70400;50.934;11.590;2023-11-22T03:36:34;11.57;;;5.85;;
80944;SDS011;70400;50.934;11.590;2023-11-22T03:37:25;11.90;;;5.70;;
80944;SDS011;70400;50.934;11.590;2023-11-22T03:38:15;9.73;;;4.57;;
80944;SDS011;70400;50.934;11.590;2023-11-22T03:39:07;12.05;;;5.72;;
80944;SDS011;70400;50.934;11.590;2023-11-22T03:39:58;12.13;;;5.88;;
80944;SDS011;70400;50.934;11.590;2023-11-22T03:40:49;15.65;;;5.70;;
80944;SDS011;70400;50.934;11.590;2023-11-22T03:41:40;14.57;;;6.63;;
80944;SDS011;70400;50.934;11.590;2023-11-22T03:42:32;9.80;;;5.65;;
80944;SDS011;70400;50.934;11.590;2023-11-22T03:43:22;13.43;;;5.68;;
80944;SDS011;70400;50.934;11.590;2023-11-22T03:44:16;14.43;;;6.50;;
80944;SDS011;70400;50.934;11.590;2023-11-22T03:45:08;12.18;;;5.53;;
80944;SDS011;70400;50.934;11.590;2023-11-22T03:46:50;13.13;;;5.57;;
80944;SDS011;70400;50.934;11.590;2023-11-22T03:47:41;13.48;;;5.03;;
80944;SDS011;70400;50.934;11.590;2023-11-22T03:49:24;10.93;;;5.28;;
80944;SDS011;70400;50.934;11.590;2023-11-22T03:50:15;12.75;;;5.32;;
80944;SDS011;70400;50.934;11.590;2023-11-22T03:51:07;11.23;;;5.72;;
80944;SDS011;70400;50.934;11.590;2023-11-22T03:51:57;13.85;;;5.90;;
80944;SDS011;70400;50.934;11.590;2023-11-22T03:52:48;12.15;;;6.47;;
80944;SDS011;70400;50.934;11.590;2023-11-22T03:53:39;14.00;;;5.90;;
80944;SDS011;70400;50.934;11.590;2023-11-22T03:54:30;12.98;;;6.30;;
80944;SDS011;70400;50.934;11.590;2023-11-22T03:55:22;14.77;;;6.40;;
80944;SDS011;70400;50.934;11.590;2023-11-22T03:56:13;8.30;;;4.72;;
80944;SDS011;70400;50.934;11.590;2023-11-22T03:57:04;10.85;;;5.90;;
80944;SDS011;70400;50.934;11.590;2023-11-22T03:57:55;20.08;;;6.57;;
80944;SDS011;70400;50.934;11.590;2023-11-22T03:58:46;11.82;;;5.25;;
80944;SDS011;70400;50.934;11.590;2023-11-22T03:59:40;15.15;;;6.53;;
80944;SDS011;70400;50.934;11.590;2023-11-22T04:00:31;14.52;;;5.97;;
80944;SDS011;70400;50.934;11.590;2023-11-22T04:01:22;10.90;;;5.97;;
80944;SDS011;70400;50.934;11.590;2023-11-22T04:02:13;10.77;;;5.75;;
80944;SDS011;70400;50.934;11.590;2023-11-22T04:03:04;11.65;;;5.38;;
80944;SDS011;70400;50.934;11.590;2023-11-22T04:03:55;10.90;;;5.90;;
80944;SDS011;70400;50.934;11.590;2023-11-22T04:04:46;10.65;;;5.38;;
80944;SDS011;70400;50.934;11.590;2023-11-22T04:05:37;13.90;;;5.85;;
80944;SDS011;70400;50.934;11.590;2023-11-22T04:06:28;10.90;;;5.78;;
80944;SDS011;70400;50.934;11.590;2023-11-22T04:07:19;9.93;;;4.97;;
80944;SDS011;70400;50.934;11.590;2023-11-22T04:08:10;10.63;;;5.05;;
80944;SDS011;70400;50.934;11.590;2023-11-22T04:09:01;12.35;;;5.95;;
80944;SDS011;70400;50.934;11.590;2023-11-22T04:09:53;12.75;;;5.43;;
80944;SDS011;70400;50.934;11.590;2023-11-22T04:10:44;10.82;;;5.68;;
80944;SDS011;70400;50.934;11.590;2023-11-22T04:12:27;11.05;;;5.95;;
80944;SDS011;70400;50.934;11.590;2023-11-22T04:13:18;11.73;;;5.82;;
80944;SDS011;70400;50.934;11.590;2023-11-22T04:14:09;13.73;;;5.72;;
80944;SDS011;70400;50.934;11.590;2023-11-22T04:15:00;13.30;;;5.72;;
80944;SDS011;70400;50.934;11.590;2023-11-22T04:15:52;9.80;;;5.20;;
80944;SDS011;70400;50.934;11.590;2023-11-22T04:16:43;12.52;;;6.20;;
80944;SDS011;70400;50.934;11.590;2023-11-22T04:17:34;10.40;;;5.43;;
80944;SDS011;70400;50.934;11.590;2023-11-22T04:18:28;10.43;;;5.75;;
80944;SDS011;70400;50.934;11.590;2023-11-22T04:19:19;10.00;;;5.13;;
80944;SDS011;70400;50.934;11.590;2023-11-22T04:20:10;14.90;;;7.07;;
80944;SDS011;70400;50.934;11.590;2023-11-22T04:21:05;10.75;;;4.95;;
80944;SDS011;70400;50.934;11.590;2023-11-22T04:21:56;12.02;;;6.03;;
80944;SDS011;70400;50.934;11.590;2023-11-22T04:22:47;12.25;;;5.03;;
80944;SDS011;70400;50.934;11.590;2023-11-22T04:23:38;12.38;;;6.18;;
80944;SDS011;70400;50.934;11.590;2023-11-22T04:24:29;14.88;;;6.03;;
80944;SDS011;70400;50.934;11.590;2023-11-22T04:25:20;12.15;;;6.82;;
80944;SDS011;70400;50.934;11.590;2023-11-22T04:26:11;11.68;;;5.20;;
80944;SDS011;70400;50.934;11.590;2023-11-22T04:27:02;12.15;;;6.18;;
80944;SDS011;70400;50.934;11.590;2023-11-22T04:27:53;9.18;;;5.18;;
80944;SDS011;70400;50.934;11.590;2023-11-22T04:28:44;12.05;;;5.57;;
80944;SDS011;70400;50.934;11.590;2023-11-22T04:29:35;13.80;;;6.47;;
80944;SDS011;70400;50.934;11.590;2023-11-22T04:30:26;10.90;;;6.07;;
80944;SDS011;70400;50.934;11.590;2023-11-22T04:31:16;12.82;;;5.45;;
80944;SDS011;70400;50.934;11.590;2023-11-22T04:32:08;9.35;;;4.53;;
80944;SDS011;70400;50.934;11.590;2023-11-22T04:32:59;12.32;;;5.50;;
80944;SDS011;70400;50.934;11.590;2023-11-22T04:33:51;11.27;;;5.55;;
80944;SDS011;70400;50.934;11.590;2023-11-22T04:34:41;12.65;;;6.07;;
80944;SDS011;70400;50.934;11.590;2023-11-22T04:35:32;12.10;;;5.93;;
80944;SDS011;70400;50.934;11.590;2023-11-22T04:36:27;13.32;;;6.05;;
80944;SDS011;70400;50.934;11.590;2023-11-22T04:37:20;11.73;;;5.57;;
80944;SDS011;70400;50.934;11.590;2023-11-22T04:38:12;12.43;;;5.63;;
80944;SDS011;70400;50.934;11.590;2023-11-22T04:39:04;12.07;;;6.00;;
80944;SDS011;70400;50.934;11.590;2023-11-22T04:39:55;11.57;;;4.97;;
80944;SDS011;70400;50.934;11.590;2023-11-22T04:40:46;12.27;;;6.05;;
80944;SDS011;70400;50.934;11.590;2023-11-22T04:41:37;12.00;;;5.90;;
80944;SDS011;70400;50.934;11.590;2023-11-22T04:42:28;17.20;;;7.18;;
80944;SDS011;70400;50.934;11.590;2023-11-22T04:43:19;11.43;;;6.00;;
80944;SDS011;70400;50.934;11.590;2023-11-22T04:44:10;10.77;;;6.30;;
80944;SDS011;70400;50.934;11.590;2023-11-22T04:45:01;12.25;;;6.50;;
80944;SDS011;70400;50.934;11.590;2023-11-22T04:45:52;12.68;;;5.20;;
80944;SDS011;70400;50.934;11.590;2023-11-22T04:46:43;10.85;;;6.05;;
80944;SDS011;70400;50.934;11.590;2023-11-22T04:47:34;12.27;;;5.68;;
80944;SDS011;70400;50.934;11.590;2023-11-22T04:48:26;11.68;;;5.13;;
80944;SDS011;70400;50.934;11.590;2023-11-22T04:49:17;10.38;;;5.55;;
80944;SDS011;70400;50.934;11.590;2023-11-22T04:50:08;12.40;;;5.50;;
80944;SDS011;70400;50.934;11.590;2023-11-22T04:51:00;12.68;;;5.72;;
80944;SDS011;70400;50.934;11.590;2023-11-22T04:51:51;12.38;;;5.50;;
80944;SDS011;70400;50.934;11.590;2023-11-22T04:52:41;11.20;;;5.63;;
80944;SDS011;70400;50.934;11.590;2023-11-22T04:53:32;11.82;;;6.25;;
80944;SDS011;70400;50.934;11.590;2023-11-22T04:54:23;14.30;;;6.65;;
80944;SDS011;70400;50.934;11.590;2023-11-22T04:55:14;12.75;;;6.82;;
80944;SDS011;70400;50.934;11.590;2023-11-22T04:56:05;13.82;;;7.07;;
80944;SDS011;70400;50.934;11.590;2023-11-22T04:56:56;12.93;;;6.57;;
80944;SDS011;70400;50.934;11.590;2023-11-22T04:57:47;11.57;;;5.20;;
80944;SDS011;70400;50.934;11.590;2023-11-22T04:58:38;12.10;;;5.57;;
80944;SDS011;70400;50.934;11.590;2023-11-22T04:59:29;11.23;;;6.00;;
80944;SDS011;70400;50.934;11.590;2023-11-22T05:00:23;11.45;;;5.70;;
80944;SDS011;70400;50.934;11.590;2023-11-22T05:01:14;10.82;;;5.97;;
80944;SDS011;70400;50.934;11.590;2023-11-22T05:02:09;11.05;;;4.65;;
80944;SDS011;70400;50.934;11.590;2023-11-22T05:03:02;13.98;;;5.70;;
80944;SDS011;70400;50.934;11.590;2023-11-22T05:03:52;13.10;;;6.00;;
80944;SDS011;70400;50.934;11.590;2023-11-22T05:04:43;8.63;;;5.57;;
80944;SDS011;70400;50.934;11.590;2023-11-22T05:05:38;13.95;;;5.65;;
80944;SDS011;70400;50.934;11.590;2023-11-22T05:06:28;12.65;;;7.43;;
80944;SDS011;70400;50.934;11.590;2023-11-22T05:07:20;13.35;;;5.60;;
80944;SDS011;70400;50.934;11.590;2023-11-22T05:08:10;11.10;;;6.32;;
80944;SDS011;70400;50.934;11.590;2023-11-22T05:09:01;14.20;;;5.93;;
80944;SDS011;70400;50.934;11.590;2023-11-22T05:09:53;12.48;;;6.25;;
80944;SDS011;70400;50.934;11.590;2023-11-22T05:10:45;9.50;;;5.03;;